Time;durP1;ratioP1;P1;durP2;ratioP2;P2;SDS_P1;SDS_P2;PMS_P1;PMS_P2;Temp;Humidity;BMP_temperature;BMP_pressure;BME280_temperature;BME280_humidity;BME280_pressure;Samples;Min_cycle;Max_cycle;Signal;HPM_P1;HPM_P2
2023/05/26 00:00:19;;;;;;;23.00;6.40;;;;;;;;;;5033120;28;20186;-67
2023/05/26 00:02:45;;;;;;;26.27;6.40;;;;;;;;;;5033112;28;20645;-67
2023/05/26 00:05:12;;;;;;;21.20;4.90;;;;;;;;;;5033079;28;20218;-66
2023/05/26 00:07:39;;;;;;;24.10;6.03;;;;;;;;;;5015573;28;20528;-66
2023/05/26 00:10:06;;;;;;;29.93;6.90;;;;;;;;;;5015400;28;20237;-67
2023/05/26 00:12:32;;;;;;;24.83;5.90;;;;;;;;;;5015405;28;20179;-67
2023/05/26 00:14:58;;;;;;;30.50;7.23;;;;;;;;;;5033492;28;20218;-67
2023/05/26 00:17:24;;;;;;;20.20;5.43;;;;;;;;;;5015219;28;20182;-67
2023/05/26 00:19:52;;;;;;;22.50;6.97;;;;;;;;;;5032830;28;20264;-66
2023/05/26 00:22:18;;;;;;;27.60;5.93;;;;;;;;;;5032921;28;20225;-67
2023/05/26 00:24:44;;;;;;;19.73;4.93;;;;;;;;;;5032780;28;20227;-67
2023/05/26 00:27:10;;;;;;;27.07;6.10;;;;;;;;;;5015070;28;20684;-67
2023/05/26 00:29:37;;;;;;;25.83;7.07;;;;;;;;;;5033160;28;20183;-68
2023/05/26 00:32:03;;;;;;;25.00;5.70;;;;;;;;;;5033744;28;20183;-67
2023/05/26 00:34:29;;;;;;;18.80;6.40;;;;;;;;;;5032484;28;20222;-67
2023/05/26 00:36:55;;;;;;;29.80;7.47;;;;;;;;;;5034401;28;20214;-68
2023/05/26 00:39:21;;;;;;;22.27;5.73;;;;;;;;;;5036333;28;20553;-67
2023/05/26 00:41:47;;;;;;;27.30;6.90;;;;;;;;;;5018601;28;20184;-67
2023/05/26 00:44:13;;;;;;;26.43;6.87;;;;;;;;;;5018455;28;20661;-67
2023/05/26 00:46:40;;;;;;;24.93;7.10;;;;;;;;;;5036279;28;20270;-67
2023/05/26 00:49:05;;;;;;;26.97;6.47;;;;;;;;;;5018422;28;20536;-66
2023/05/26 00:51:32;;;;;;;22.93;6.77;;;;;;;;;;5018322;28;20190;-68
2023/05/26 00:53:59;;;;;;;22.23;6.27;;;;;;;;;;5036521;28;20661;-67
2023/05/26 00:56:27;;;;;;;24.37;6.53;;;;;;;;;;5036339;28;20168;-68
2023/05/26 00:58:53;;;;;;;30.10;6.97;;;;;;;;;;5036126;28;20653;-67
2023/05/26 01:01:19;;;;;;;23.43;6.43;;;;;;;;;;5036039;28;20171;-68
2023/05/26 01:03:45;;;;;;;20.90;5.73;;;;;;;;;;5018149;28;20246;-67
2023/05/26 01:06:11;;;;;;;21.90;6.30;;;;;;;;;;5035864;28;20199;-67
2023/05/26 01:08:37;;;;;;;25.43;6.23;;;;;;;;;;5035834;28;20201;-67
2023/05/26 01:11:06;;;;;;;24.83;6.20;;;;;;;;;;5018000;28;20183;-68
2023/05/26 01:13:39;;;;;;;24.97;6.17;;;;;;;;;;5036012;28;20723;-67
2023/05/26 01:16:08;;;;;;;25.83;6.20;;;;;;;;;;5036325;28;20221;-67
2023/05/26 01:18:45;;;;;;;22.00;5.83;;;;;;;;;;5017900;28;20171;-68
2023/05/26 01:21:14;;;;;;;24.83;6.50;;;;;;;;;;5035619;28;20520;-67
2023/05/26 01:23:40;;;;;;;23.47;6.00;;;;;;;;;;5017945;28;20190;-67
2023/05/26 01:26:13;;;;;;;26.87;6.17;;;;;;;;;;5035934;28;20649;-67
2023/05/26 01:28:41;;;;;;;24.40;6.70;;;;;;;;;;5035902;28;20171;-66
2023/05/26 01:31:08;;;;;;;24.77;6.97;;;;;;;;;;5017691;28;20187;-67
2023/05/26 01:33:35;;;;;;;22.20;6.50;;;;;;;;;;5017494;28;20207;-67
2023/05/26 01:36:01;;;;;;;27.87;6.67;;;;;;;;;;5035265;28;20210;-67
2023/05/26 01:38:27;;;;;;;22.83;5.73;;;;;;;;;;5035663;28;20547;-68
2023/05/26 01:40:56;;;;;;;28.47;7.00;;;;;;;;;;5035284;28;20183;-67
2023/05/26 01:43:22;;;;;;;33.07;8.37;;;;;;;;;;5017608;28;20179;-67
2023/05/26 01:46:08;;;;;;;24.33;6.87;;;;;;;;;;5035186;28;20195;-67
2023/05/26 01:48:35;;;;;;;25.97;7.13;;;;;;;;;;5035478;28;20174;-67
2023/05/26 01:51:02;;;;;;;32.07;7.87;;;;;;;;;;5035487;28;20185;-68
2023/05/26 01:53:30;;;;;;;24.03;7.17;;;;;;;;;;5034940;28;20199;-66
2023/05/26 01:55:58;;;;;;;37.60;8.03;;;;;;;;;;5035087;28;20257;-67
2023/05/26 01:58:25;;;;;;;26.77;7.20;;;;;;;;;;5034945;28;20542;-67
2023/05/26 02:00:53;;;;;;;33.93;6.60;;;;;;;;;;5035148;28;20176;-66
2023/05/26 02:03:20;;;;;;;34.30;8.50;;;;;;;;;;5035086;28;20277;-68
2023/05/26 02:05:45;;;;;;;20.93;6.70;;;;;;;;;;5034787;28;20196;-67
2023/05/26 02:08:12;;;;;;;30.30;7.53;;;;;;;;;;5034728;28;20529;-67
2023/05/26 02:10:38;;;;;;;23.63;5.40;;;;;;;;;;5034701;28;20218;-67
2023/05/26 02:13:04;;;;;;;24.50;7.07;;;;;;;;;;5034596;28;20171;-68
2023/05/26 02:15:30;;;;;;;27.27;6.90;;;;;;;;;;5034605;28;20195;-67
2023/05/26 02:17:57;;;;;;;31.93;7.23;;;;;;;;;;5034568;28;20266;-67
2023/05/26 02:20:24;;;;;;;28.23;7.03;;;;;;;;;;5034529;28;20167;-67
2023/05/26 02:22:50;;;;;;;24.40;6.50;;;;;;;;;;5034473;28;20557;-67
2023/05/26 02:25:16;;;;;;;28.23;6.77;;;;;;;;;;5034405;28;20302;-68
2023/05/26 02:27:42;;;;;;;18.03;5.67;;;;;;;;;;5034428;28;20182;-66
2023/05/26 02:30:08;;;;;;;34.37;6.37;;;;;;;;;;5034344;28;20175;-67
2023/05/26 02:32:36;;;;;;;29.27;7.83;;;;;;;;;;5034257;28;20183;-68
2023/05/26 02:35:03;;;;;;;26.37;7.53;;;;;;;;;;5034111;28;20305;-67
2023/05/26 02:37:29;;;;;;;25.40;6.90;;;;;;;;;;5034298;28;20171;-67
2023/05/26 02:39:55;;;;;;;23.63;4.53;;;;;;;;;;5016867;28;20242;-68
2023/05/26 02:42:21;;;;;;;23.13;5.57;;;;;;;;;;5035002;28;20179;-66
2023/05/26 02:44:47;;;;;;;28.30;6.50;;;;;;;;;;5035043;28;20210;-67
2023/05/26 02:47:13;;;;;;;26.47;6.57;;;;;;;;;;5016858;28;20649;-68
2023/05/26 02:49:39;;;;;;;33.07;6.90;;;;;;;;;;5034348;28;20175;-67
2023/05/26 02:52:05;;;;;;;23.60;5.93;;;;;;;;;;5017301;28;20194;-67
2023/05/26 02:54:31;;;;;;;29.30;6.87;;;;;;;;;;5017946;28;20219;-68
2023/05/26 02:56:57;;;;;;;28.37;7.43;;;;;;;;;;5017980;28;20270;-66
2023/05/26 02:59:23;;;;;;;29.43;7.43;;;;;;;;;;5018326;28;20273;-67
2023/05/26 03:01:49;;;;;;;24.97;5.83;;;;;;;;;;5017346;28;20605;-68
2023/05/26 03:04:15;;;;;;;33.00;7.53;;;;;;;;;;5035947;28;20199;-66
2023/05/26 03:06:41;;;;;;;33.40;7.23;;;;;;;;;;5035821;28;20210;-67
2023/05/26 03:09:07;;;;;;;21.40;5.67;;;;;;;;;;5017716;28;20175;-67
2023/05/26 03:11:34;;;;;;;26.40;6.57;;;;;;;;;;5021374;28;20183;-72
2023/05/26 03:14:00;;;;;;;24.47;5.53;;;;;;;;;;5019805;28;20203;-71
2023/05/26 03:16:27;;;;;;;25.00;6.47;;;;;;;;;;5038338;28;20175;-69
2023/05/26 03:18:53;;;;;;;21.13;6.17;;;;;;;;;;5037743;28;20171;-70
2023/05/26 03:21:19;;;;;;;26.87;6.83;;;;;;;;;;5039125;28;20179;-69
2023/05/26 03:23:45;;;;;;;26.60;5.47;;;;;;;;;;5039184;28;20182;-69
2023/05/26 03:26:11;;;;;;;28.63;7.13;;;;;;;;;;5018226;28;20227;-71
2023/05/26 03:28:37;;;;;;;30.70;6.60;;;;;;;;;;5036348;28;20206;-70
2023/05/26 03:31:03;;;;;;;29.13;7.57;;;;;;;;;;5036574;28;20277;-70
2023/05/26 03:33:31;;;;;;;24.30;6.93;;;;;;;;;;5036447;28;20206;-68
2023/05/26 03:35:58;;;;;;;17.23;5.47;;;;;;;;;;5036195;28;20227;-70
2023/05/26 03:38:24;;;;;;;28.27;6.47;;;;;;;;;;5019854;28;20237;-73
2023/05/26 03:40:50;;;;;;;27.00;7.50;;;;;;;;;;5016387;28;20249;-70
2023/05/26 03:43:16;;;;;;;24.27;6.03;;;;;;;;;;5015919;28;20174;-67
2023/05/26 03:45:43;;;;;;;28.77;7.03;;;;;;;;;;5015840;28;20199;-69
2023/05/26 03:48:12;;;;;;;29.23;6.67;;;;;;;;;;5033247;28;20258;-69
2023/05/26 03:50:38;;;;;;;23.70;5.83;;;;;;;;;;5015625;28;20258;-68
2023/05/26 03:53:04;;;;;;;25.27;7.07;;;;;;;;;;5033617;28;20171;-67
2023/05/26 03:55:33;;;;;;;33.83;7.33;;;;;;;;;;5015474;28;20218;-67
2023/05/26 03:58:04;;;;;;;32.23;7.30;;;;;;;;;;5017754;28;20179;-68
2023/05/26 04:00:32;;;;;;;28.07;6.93;;;;;;;;;;5033556;28;20258;-68
2023/05/26 04:02:58;;;;;;;24.00;6.27;;;;;;;;;;5033527;28;20175;-68
2023/05/26 04:05:24;;;;;;;23.83;6.60;;;;;;;;;;5032987;28;20286;-68
2023/05/26 04:07:50;;;;;;;29.90;7.67;;;;;;;;;;5032833;28;20673;-68
2023/05/26 04:10:16;;;;;;;32.93;7.27;;;;;;;;;;5033540;28;20645;-69
2023/05/26 04:12:43;;;;;;;35.27;7.73;;;;;;;;;;5018808;28;20182;-67
2023/05/26 04:15:09;;;;;;;33.83;7.83;;;;;;;;;;5019148;28;20223;-68
2023/05/26 04:17:35;;;;;;;30.00;6.47;;;;;;;;;;5037034;28;20213;-67
2023/05/26 04:20:05;;;;;;;32.20;8.30;;;;;;;;;;5036990;28;20179;-68
2023/05/26 04:22:31;;;;;;;29.97;7.00;;;;;;;;;;5037453;28;20187;-67
2023/05/26 04:24:57;;;;;;;28.13;6.47;;;;;;;;;;5036733;28;20227;-66
2023/05/26 04:27:24;;;;;;;32.07;6.40;;;;;;;;;;5036719;28;20179;-65
2023/05/26 04:29:50;;;;;;;25.17;6.97;;;;;;;;;;5036883;28;20295;-65
2023/05/26 04:32:16;;;;;;;30.10;7.53;;;;;;;;;;5037100;28;20664;-65
2023/05/26 04:34:44;;;;;;;36.03;8.00;;;;;;;;;;5036906;28;20218;-68
2023/05/26 04:37:10;;;;;;;34.63;7.77;;;;;;;;;;5064582;23;20222;-69
2023/05/26 04:39:36;;;;;;;27.30;6.63;;;;;;;;;;5056916;28;20174;-70
2023/05/26 04:42:05;;;;;;;31.60;6.90;;;;;;;;;;5056376;28;20171;-72
2023/05/26 04:44:32;;;;;;;30.33;7.77;;;;;;;;;;5056294;28;20185;-71
2023/05/26 04:47:00;;;;;;;25.50;7.27;;;;;;;;;;5056602;28;20676;-71
2023/05/26 04:49:27;;;;;;;28.47;7.37;;;;;;;;;;5038347;28;20188;-69
2023/05/26 04:51:56;;;;;;;33.37;7.47;;;;;;;;;;5038588;28;20207;-69
2023/05/26 04:54:22;;;;;;;34.90;7.67;;;;;;;;;;5056124;28;20203;-71
2023/05/26 04:56:48;;;;;;;30.77;6.87;;;;;;;;;;5038319;28;20201;-69
2023/05/26 04:59:14;;;;;;;33.77;7.67;;;;;;;;;;5056171;28;20179;-70
2023/05/26 05:01:40;;;;;;;27.43;7.10;;;;;;;;;;5038738;28;20181;-70
2023/05/26 05:04:07;;;;;;;36.30;8.47;;;;;;;;;;5056844;28;20647;-70
2023/05/26 05:06:33;;;;;;;31.87;7.67;;;;;;;;;;5056435;28;20277;-70
2023/05/26 05:08:59;;;;;;;28.70;7.83;;;;;;;;;;5038304;28;20214;-70
2023/05/26 05:11:25;;;;;;;27.80;7.77;;;;;;;;;;5038149;28;20293;-70
2023/05/26 05:13:51;;;;;;;25.77;7.03;;;;;;;;;;5056122;28;20248;-71
2023/05/26 05:16:17;;;;;;;30.73;7.70;;;;;;;;;;5038258;28;20194;-70
2023/05/26 05:18:43;;;;;;;31.23;7.73;;;;;;;;;;5038331;28;20209;-70
2023/05/26 05:21:09;;;;;;;35.30;7.33;;;;;;;;;;5055689;28;20548;-70
2023/05/26 05:23:35;;;;;;;24.13;6.87;;;;;;;;;;5036888;28;20182;-70
2023/05/26 05:26:01;;;;;;;17.80;4.87;;;;;;;;;;5055546;28;20183;-71
2023/05/26 05:28:27;;;;;;;34.20;7.70;;;;;;;;;;5037889;28;20305;-70
2023/05/26 05:30:53;;;;;;;35.67;8.40;;;;;;;;;;5056090;28;20536;-70
2023/05/26 05:33:19;;;;;;;28.90;7.83;;;;;;;;;;5037756;28;20182;-70
2023/05/26 05:35:45;;;;;;;31.37;8.60;;;;;;;;;;5055546;28;20178;-70
2023/05/26 05:38:12;;;;;;;31.50;7.50;;;;;;;;;;5055530;28;20590;-68
2023/05/26 05:40:38;;;;;;;24.67;7.13;;;;;;;;;;5055412;28;20220;-68
2023/05/26 05:43:04;;;;;;;25.13;7.77;;;;;;;;;;5055321;28;20224;-68
2023/05/26 05:45:31;;;;;;;30.53;8.60;;;;;;;;;;5037627;28;20558;-68
2023/05/26 05:47:57;;;;;;;27.10;6.17;;;;;;;;;;5037318;28;20207;-68
2023/05/26 05:50:23;;;;;;;28.07;8.20;;;;;;;;;;5037432;28;20198;-68
2023/05/26 05:52:49;;;;;;;28.90;8.00;;;;;;;;;;5037379;28;20273;-68
2023/05/26 05:55:15;;;;;;;29.67;7.53;;;;;;;;;;5037192;28;20271;-68
2023/05/26 05:57:41;;;;;;;29.73;8.03;;;;;;;;;;5037290;28;20194;-69
2023/05/26 06:00:09;;;;;;;31.43;8.20;;;;;;;;;;5037453;28;20182;-70
2023/05/26 06:02:35;;;;;;;33.23;7.93;;;;;;;;;;5054999;28;20179;-69
2023/05/26 06:05:01;;;;;;;25.27;7.63;;;;;;;;;;5037438;28;20194;-71
2023/05/26 06:07:27;;;;;;;28.07;6.07;;;;;;;;;;5055994;28;20571;-71
2023/05/26 06:09:53;;;;;;;37.10;8.20;;;;;;;;;;5055149;28;20285;-70
2023/05/26 06:12:19;;;;;;;27.87;7.33;;;;;;;;;;5055209;28;20174;-71
2023/05/26 06:14:45;;;;;;;26.13;7.50;;;;;;;;;;5054643;28;20198;-68
2023/05/26 06:17:11;;;;;;;35.43;7.67;;;;;;;;;;5036720;28;20198;-69
2023/05/26 06:19:37;;;;;;;18.47;6.67;;;;;;;;;;5036819;28;20269;-69
2023/05/26 06:22:03;;;;;;;20.07;6.37;;;;;;;;;;5036762;28;20557;-69
2023/05/26 06:24:29;;;;;;;29.90;8.10;;;;;;;;;;5054602;28;20246;-68
2023/05/26 06:26:55;;;;;;;25.77;6.77;;;;;;;;;;5054970;28;20191;-68
2023/05/26 06:29:21;;;;;;;25.63;7.10;;;;;;;;;;5054395;28;20179;-69
2023/05/26 06:31:47;;;;;;;25.43;6.67;;;;;;;;;;5054599;28;20232;-69
2023/05/26 06:34:13;;;;;;;36.67;8.13;;;;;;;;;;5036526;28;20207;-69
2023/05/26 06:36:39;;;;;;;33.80;7.73;;;;;;;;;;5054133;28;20217;-70
2023/05/26 06:39:05;;;;;;;32.47;8.20;;;;;;;;;;5036458;28;20174;-69
2023/05/26 06:41:31;;;;;;;29.53;8.03;;;;;;;;;;5036291;28;20189;-69
2023/05/26 06:43:57;;;;;;;33.17;6.90;;;;;;;;;;5054326;28;20651;-69
2023/05/26 06:46:23;;;;;;;26.00;8.07;;;;;;;;;;5036444;28;20669;-69
2023/05/26 06:48:49;;;;;;;32.70;8.90;;;;;;;;;;5036376;28;20181;-69
2023/05/26 06:51:15;;;;;;;27.73;8.03;;;;;;;;;;5036310;28;20174;-68
2023/05/26 06:53:41;;;;;;;23.43;7.57;;;;;;;;;;5053928;28;20194;-69
2023/05/26 06:56:07;;;;;;;20.60;6.60;;;;;;;;;;5053759;28;20538;-69
2023/05/26 06:58:33;;;;;;;21.50;6.07;;;;;;;;;;5036070;28;20213;-69
2023/05/26 07:01:00;;;;;;;25.77;7.07;;;;;;;;;;5035890;28;20185;-69
2023/05/26 07:03:26;;;;;;;28.57;5.87;;;;;;;;;;5035878;28;20664;-69
2023/05/26 07:05:53;;;;;;;28.23;7.13;;;;;;;;;;5053565;28;20185;-69
2023/05/26 07:08:19;;;;;;;33.50;8.03;;;;;;;;;;5053625;28;20262;-69
2023/05/26 07:10:45;;;;;;;22.60;6.40;;;;;;;;;;5053836;28;20630;-69
2023/05/26 07:13:11;;;;;;;22.37;5.77;;;;;;;;;;5054225;28;20307;-69
2023/05/26 07:15:36;;;;;;;19.30;6.07;;;;;;;;;;5054024;28;20259;-69
2023/05/26 07:18:02;;;;;;;25.93;7.97;;;;;;;;;;5036027;28;20224;-68
2023/05/26 07:20:28;;;;;;;27.67;8.10;;;;;;;;;;5036224;28;20179;-68
2023/05/26 07:22:54;;;;;;;31.73;8.30;;;;;;;;;;5054285;28;20174;-68
2023/05/26 07:25:20;;;;;;;24.53;7.40;;;;;;;;;;5035611;28;20183;-69
2023/05/26 07:27:46;;;;;;;24.97;8.17;;;;;;;;;;5035374;28;20639;-68
2023/05/26 07:30:12;;;;;;;21.07;6.80;;;;;;;;;;5053813;28;20209;-70
2023/05/26 07:32:38;;;;;;;26.90;7.27;;;;;;;;;;5053617;28;20592;-69
2023/05/26 07:35:04;;;;;;;22.40;7.00;;;;;;;;;;5053324;28;20240;-69
2023/05/26 07:37:30;;;;;;;22.93;6.50;;;;;;;;;;5053080;28;20260;-69
2023/05/26 07:39:57;;;;;;;24.77;7.43;;;;;;;;;;5035377;28;20644;-69
2023/05/26 07:42:23;;;;;;;28.83;6.13;;;;;;;;;;5053178;28;20175;-69
2023/05/26 07:44:48;;;;;;;25.10;7.30;;;;;;;;;;5035363;28;20209;-69
2023/05/26 07:47:15;;;;;;;28.57;7.67;;;;;;;;;;5052492;28;20198;-69
2023/05/26 07:49:41;;;;;;;33.43;8.33;;;;;;;;;;5035425;28;20178;-69
2023/05/26 07:52:07;;;;;;;20.27;5.63;;;;;;;;;;5035251;28;20186;-69
2023/05/26 07:54:33;;;;;;;24.90;6.90;;;;;;;;;;5035147;28;20318;-69
2023/05/26 07:56:59;;;;;;;23.43;7.40;;;;;;;;;;5053024;28;20680;-69
2023/05/26 07:59:25;;;;;;;21.73;5.83;;;;;;;;;;5035351;28;20178;-69
2023/05/26 08:01:51;;;;;;;27.70;7.27;;;;;;;;;;5035245;28;20566;-68
2023/05/26 08:04:16;;;;;;;32.10;7.30;;;;;;;;;;5053042;28;20235;-69
2023/05/26 08:06:42;;;;;;;27.83;7.90;;;;;;;;;;5053362;28;20671;-69
2023/05/26 08:09:10;;;;;;;16.63;4.70;;;;;;;;;;5053087;28;20553;-70
2023/05/26 08:11:36;;;;;;;23.00;6.83;;;;;;;;;;5053599;28;20203;-69
2023/05/26 08:14:02;;;;;;;20.77;6.03;;;;;;;;;;5053431;28;20226;-69
2023/05/26 08:16:28;;;;;;;20.10;6.20;;;;;;;;;;5053716;28;20244;-69
2023/05/26 08:18:55;;;;;;;26.57;7.63;;;;;;;;;;5053470;28;20182;-69
2023/05/26 08:21:21;;;;;;;23.20;7.00;;;;;;;;;;5053072;28;20632;-69
2023/05/26 08:23:46;;;;;;;15.87;4.30;;;;;;;;;;5053387;28;20244;-70
2023/05/26 08:26:12;;;;;;;23.57;6.40;;;;;;;;;;5034941;28;20226;-69
2023/05/26 08:28:38;;;;;;;23.27;5.10;;;;;;;;;;5053354;28;20244;-69
2023/05/26 08:31:05;;;;;;;23.07;6.80;;;;;;;;;;5035096;28;20225;-69
2023/05/26 08:33:31;;;;;;;29.27;7.20;;;;;;;;;;5034972;28;20186;-69
2023/05/26 08:35:57;;;;;;;22.70;7.10;;;;;;;;;;5053044;28;20224;-70
2023/05/26 08:38:23;;;;;;;27.47;7.30;;;;;;;;;;5034956;28;20190;-69
2023/05/26 08:40:51;;;;;;;20.60;6.33;;;;;;;;;;5052915;28;20167;-69
2023/05/26 08:43:19;;;;;;;17.53;5.50;;;;;;;;;;5034965;28;20559;-69
2023/05/26 08:45:47;;;;;;;28.17;7.60;;;;;;;;;;5052495;28;20528;-69
2023/05/26 08:48:13;;;;;;;33.57;7.40;;;;;;;;;;5034608;28;20206;-69
2023/05/26 08:50:40;;;;;;;10.53;4.83;;;;;;;;;;5035027;28;20189;-70
2023/05/26 08:53:06;;;;;;;23.83;6.43;;;;;;;;;;5036076;28;20186;-69
2023/05/26 08:55:35;;;;;;;20.13;6.70;;;;;;;;;;5035686;28;20592;-69
2023/05/26 08:58:01;;;;;;;20.10;5.30;;;;;;;;;;5053962;28;20194;-69
2023/05/26 09:00:32;;;;;;;24.63;6.53;;;;;;;;;;5057354;28;20551;-69
2023/05/26 09:02:58;;;;;;;30.93;5.93;;;;;;;;;;5056715;28;20176;-69
2023/05/26 09:05:24;;;;;;;21.70;6.80;;;;;;;;;;5056143;28;20174;-69
2023/05/26 09:07:51;;;;;;;23.57;5.67;;;;;;;;;;5038254;28;20194;-69
2023/05/26 09:10:23;;;;;;;20.13;6.03;;;;;;;;;;5038186;28;20269;-69
2023/05/26 09:12:49;;;;;;;21.40;5.37;;;;;;;;;;5056113;28;20179;-70
2023/05/26 09:15:19;;;;;;;20.47;5.47;;;;;;;;;;5038175;28;20283;-70
2023/05/26 09:17:46;;;;;;;20.97;6.07;;;;;;;;;;5056197;28;20320;-68
2023/05/26 09:20:12;;;;;;;22.17;5.63;;;;;;;;;;5038095;28;20265;-69
2023/05/26 09:22:38;;;;;;;22.17;6.77;;;;;;;;;;5055861;28;20198;-70
2023/05/26 09:25:04;;;;;;;26.37;7.07;;;;;;;;;;5037829;28;20715;-69
2023/05/26 09:27:30;;;;;;;27.30;7.40;;;;;;;;;;5055894;28;20198;-69
2023/05/26 09:30:00;;;;;;;28.57;7.80;;;;;;;;;;5056050;28;20185;-69
2023/05/26 09:32:29;;;;;;;27.17;7.27;;;;;;;;;;5037530;28;20656;-69
2023/05/26 09:35:05;;;;;;;21.00;6.20;;;;;;;;;;5055571;28;20201;-69
2023/05/26 09:37:32;;;;;;;19.33;5.30;;;;;;;;;;5037956;28;20289;-70
2023/05/26 09:40:11;;;;;;;20.53;6.37;;;;;;;;;;5037530;28;20528;-68
2023/05/26 09:42:38;;;;;;;28.50;6.93;;;;;;;;;;5037383;28;20638;-69
2023/05/26 09:45:04;;;;;;;14.50;4.17;;;;;;;;;;5037339;28;20707;-69
2023/05/26 09:47:35;;;;;;;23.50;6.30;;;;;;;;;;5055224;28;20225;-70
2023/05/26 09:50:05;;;;;;;26.27;7.17;;;;;;;;;;5037342;28;20684;-70
2023/05/26 09:52:32;;;;;;;27.90;6.70;;;;;;;;;;5055604;28;20182;-69
2023/05/26 09:54:58;;;;;;;23.87;7.67;;;;;;;;;;5037642;28;20205;-70
2023/05/26 09:57:25;;;;;;;22.83;6.53;;;;;;;;;;5037067;28;20203;-69
2023/05/26 09:59:54;;;;;;;31.53;7.60;;;;;;;;;;5055140;28;20193;-69
2023/05/26 10:02:21;;;;;;;28.20;7.37;;;;;;;;;;5037145;28;20316;-69
2023/05/26 10:04:47;;;;;;;25.20;7.07;;;;;;;;;;5054958;28;20183;-69
2023/05/26 10:07:14;;;;;;;25.17;6.50;;;;;;;;;;5055511;28;20194;-69
2023/05/26 10:09:41;;;;;;;22.53;6.47;;;;;;;;;;5054689;28;20706;-70
2023/05/26 10:12:07;;;;;;;20.37;6.40;;;;;;;;;;5055262;28;20187;-69
2023/05/26 10:14:37;;;;;;;33.10;7.37;;;;;;;;;;5055659;28;20194;-69
2023/05/26 10:17:04;;;;;;;23.53;6.27;;;;;;;;;;5055256;28;20205;-69
2023/05/26 10:19:30;;;;;;;25.23;6.87;;;;;;;;;;5037784;28;20178;-69
2023/05/26 10:22:00;;;;;;;19.93;6.53;;;;;;;;;;5058799;28;20224;-69
2023/05/26 10:24:31;;;;;;;23.33;7.30;;;;;;;;;;5039193;28;20196;-69
2023/05/26 10:27:00;;;;;;;20.07;6.13;;;;;;;;;;5056745;28;20198;-69
2023/05/26 10:29:30;;;;;;;21.63;6.90;;;;;;;;;;5055905;28;20250;-69
2023/05/26 10:31:56;;;;;;;25.10;7.67;;;;;;;;;;5055387;28;20174;-69
2023/05/26 10:34:42;;;;;;;24.07;7.47;;;;;;;;;;5036604;28;20213;-69
2023/05/26 10:37:15;;;;;;;22.33;7.63;;;;;;;;;;5054776;28;20234;-69
2023/05/26 10:39:41;;;;;;;19.97;6.83;;;;;;;;;;5055542;28;20174;-69
2023/05/26 10:42:17;;;;;;;19.47;6.53;;;;;;;;;;5039116;28;20707;-69
2023/05/26 10:44:45;;;;;;;20.87;6.50;;;;;;;;;;5057900;28;20208;-69
2023/05/26 10:47:15;;;;;;;25.17;6.60;;;;;;;;;;5056732;23;20380;-68
2023/05/26 10:49:42;;;;;;;21.27;5.80;;;;;;;;;;5034147;28;20572;-67
2023/05/26 10:52:14;;;;;;;23.20;6.93;;;;;;;;;;5034565;28;20173;-68
2023/05/26 10:54:42;;;;;;;22.23;6.93;;;;;;;;;;5033846;28;20199;-68
2023/05/26 10:57:28;;;;;;;16.93;5.80;;;;;;;;;;5033859;28;20191;-67
2023/05/26 10:59:54;;;;;;;11.40;3.90;;;;;;;;;;5016192;28;20254;-66
2023/05/26 11:02:21;;;;;;;19.03;5.93;;;;;;;;;;5033872;28;20618;-65
2023/05/26 11:04:47;;;;;;;15.63;5.07;;;;;;;;;;5016118;28;20244;-66
2023/05/26 11:07:18;;;;;;;20.93;6.20;;;;;;;;;;5034472;28;20626;-65
2023/05/26 11:10:02;;;;;;;20.73;4.83;;;;;;;;;;5034162;28;20640;-66
2023/05/26 11:12:31;;;;;;;12.37;4.00;;;;;;;;;;5034115;28;20633;-66
2023/05/26 11:14:57;;;;;;;17.83;5.73;;;;;;;;;;5034335;28;20286;-65
2023/05/26 11:17:24;;;;;;;13.67;4.97;;;;;;;;;;5016131;28;20242;-64
2023/05/26 11:19:55;;;;;;;13.10;5.63;;;;;;;;;;5033549;28;20253;-64
2023/05/26 11:22:21;;;;;;;23.23;6.23;;;;;;;;;;5032770;28;20171;-64
2023/05/26 11:24:52;;;;;;;13.80;5.90;;;;;;;;;;5034319;28;20573;-63
2023/05/26 11:27:18;;;;;;;17.50;5.20;;;;;;;;;;5015636;28;20238;-64
2023/05/26 11:29:48;;;;;;;16.63;4.90;;;;;;;;;;5033375;28;20690;-65
2023/05/26 11:32:14;;;;;;;14.77;5.20;;;;;;;;;;5033461;28;20259;-64
2023/05/26 11:34:40;;;;;;;11.00;5.07;;;;;;;;;;5015740;28;20277;-64
2023/05/26 11:37:08;;;;;;;14.17;5.27;;;;;;;;;;5033360;28;20187;-69
2023/05/26 11:39:35;;;;;;;20.93;5.53;;;;;;;;;;5033671;28;20178;-65
2023/05/26 11:42:07;;;;;;;10.77;3.53;;;;;;;;;;5033172;28;20334;-64
2023/05/26 11:44:33;;;;;;;17.20;5.07;;;;;;;;;;5033015;28;20258;-64
2023/05/26 11:46:59;;;;;;;15.10;4.47;;;;;;;;;;5033224;28;20202;-63
2023/05/26 11:49:25;;;;;;;17.27;4.93;;;;;;;;;;5033408;28;20210;-64
2023/05/26 11:51:51;;;;;;;17.40;5.00;;;;;;;;;;5033091;28;20229;-63
2023/05/26 11:54:18;;;;;;;16.93;5.87;;;;;;;;;;5032902;28;20234;-64
2023/05/26 11:56:45;;;;;;;16.77;5.47;;;;;;;;;;5032942;28;20171;-63
2023/05/26 11:59:16;;;;;;;10.63;4.23;;;;;;;;;;5015385;28;20185;-66
2023/05/26 12:01:42;;;;;;;6.77;2.97;;;;;;;;;;5033451;28;20246;-63
2023/05/26 12:04:08;;;;;;;13.10;4.10;;;;;;;;;;5033704;28;20233;-63
2023/05/26 12:06:38;;;;;;;12.53;4.73;;;;;;;;;;5033416;28;20179;-63
2023/05/26 12:09:09;;;;;;;9.87;3.60;;;;;;;;;;5015565;28;20199;-63
2023/05/26 12:11:42;;;;;;;18.17;5.67;;;;;;;;;;5015780;28;20179;-63
2023/05/26 12:14:12;;;;;;;19.13;5.67;;;;;;;;;;5033699;28;20226;-63
2023/05/26 12:16:41;;;;;;;16.37;4.83;;;;;;;;;;5033330;28;20593;-63
2023/05/26 12:19:08;;;;;;;15.67;4.93;;;;;;;;;;5033139;28;20258;-63
2023/05/26 12:21:40;;;;;;;18.57;5.57;;;;;;;;;;5015133;28;20684;-63
2023/05/26 12:24:06;;;;;;;24.13;6.43;;;;;;;;;;5033306;28;20179;-66
2023/05/26 12:26:32;;;;;;;17.97;5.67;;;;;;;;;;5032762;28;20664;-65
2023/05/26 12:29:08;;;;;;;16.00;5.13;;;;;;;;;;5032730;28;20234;-64
2023/05/26 12:31:41;;;;;;;16.40;4.83;;;;;;;;;;5032991;28;20645;-65
2023/05/26 12:34:08;;;;;;;13.10;5.23;;;;;;;;;;5036133;28;20214;-64
2023/05/26 12:36:34;;;;;;;19.90;6.43;;;;;;;;;;5036875;28;20683;-65
2023/05/26 12:39:01;;;;;;;13.53;4.77;;;;;;;;;;5036544;28;20666;-65
2023/05/26 12:41:26;;;;;;;11.90;3.87;;;;;;;;;;5018764;28;20186;-64
2023/05/26 12:43:52;;;;;;;20.20;6.07;;;;;;;;;;5036403;28;20179;-65
2023/05/26 12:46:19;;;;;;;14.10;5.30;;;;;;;;;;5036373;28;20179;-64
2023/05/26 12:48:44;;;;;;;14.63;4.47;;;;;;;;;;5018480;28;20254;-65
2023/05/26 12:51:13;;;;;;;13.53;5.10;;;;;;;;;;5018589;28;20214;-67
2023/05/26 12:53:39;;;;;;;16.23;5.40;;;;;;;;;;5036266;28;20175;-66
2023/05/26 12:56:06;;;;;;;13.17;4.70;;;;;;;;;;5036329;28;20186;-65
2023/05/26 12:58:32;;;;;;;15.03;6.13;;;;;;;;;;5036132;28;20195;-65
2023/05/26 13:00:58;;;;;;;17.57;6.13;;;;;;;;;;5035929;28;20534;-65
2023/05/26 13:03:24;;;;;;;22.27;6.40;;;;;;;;;;5018336;28;20190;-65
2023/05/26 13:05:50;;;;;;;10.67;4.20;;;;;;;;;;5035972;28;20179;-65
2023/05/26 13:08:17;;;;;;;8.83;3.23;;;;;;;;;;5018141;28;20579;-65
2023/05/26 13:10:44;;;;;;;12.50;4.07;;;;;;;;;;5017973;28;20187;-65
2023/05/26 13:13:11;;;;;;;9.17;3.93;;;;;;;;;;5036393;28;20179;-64
2023/05/26 13:15:37;;;;;;;12.80;4.20;;;;;;;;;;5035631;28;20206;-65
2023/05/26 13:18:03;;;;;;;10.63;4.07;;;;;;;;;;5018023;28;20214;-64
2023/05/26 13:20:29;;;;;;;11.77;4.63;;;;;;;;;;5017929;28;20233;-65
2023/05/26 13:22:55;;;;;;;9.20;3.43;;;;;;;;;;5017863;28;20201;-66
2023/05/26 13:25:22;;;;;;;10.17;4.07;;;;;;;;;;5017844;28;20183;-65
2023/05/26 13:27:48;;;;;;;35.27;5.23;;;;;;;;;;5035381;28;20569;-64
2023/05/26 13:30:15;;;;;;;8.63;3.00;;;;;;;;;;5035532;28;20175;-65
2023/05/26 13:32:41;;;;;;;11.43;4.50;;;;;;;;;;5035606;28;20183;-65
2023/05/26 13:35:07;;;;;;;10.87;4.37;;;;;;;;;;5035677;28;20214;-65
2023/05/26 13:37:33;;;;;;;14.80;5.27;;;;;;;;;;5036212;28;20620;-65
2023/05/26 13:39:58;;;;;;;15.20;5.73;;;;;;;;;;5035681;28;20246;-65
2023/05/26 13:42:24;;;;;;;6.87;2.63;;;;;;;;;;5018165;28;20233;-65
2023/05/26 13:44:50;;;;;;;16.47;6.10;;;;;;;;;;5035165;28;20233;-66
2023/05/26 13:47:17;;;;;;;7.77;3.70;;;;;;;;;;5017473;28;20605;-65
2023/05/26 13:49:43;;;;;;;10.43;3.80;;;;;;;;;;5035481;28;20633;-66
2023/05/26 13:52:09;;;;;;;9.97;4.07;;;;;;;;;;5035372;28;20179;-66
2023/05/26 13:54:35;;;;;;;25.23;5.03;;;;;;;;;;5035055;28;20203;-66
2023/05/26 13:57:01;;;;;;;12.93;4.03;;;;;;;;;;5035131;28;20195;-66
2023/05/26 13:59:29;;;;;;;8.33;3.50;;;;;;;;;;5035124;28;20179;-64
2023/05/26 14:01:55;;;;;;;20.53;4.03;;;;;;;;;;5035222;28;20638;-63
2023/05/26 14:04:25;;;;;;;7.80;3.43;;;;;;;;;;5035537;28;20186;-63
2023/05/26 14:06:51;;;;;;;6.87;3.57;;;;;;;;;;5034837;28;20183;-64
2023/05/26 14:09:17;;;;;;;9.43;3.07;;;;;;;;;;5034824;28;20261;-65
2023/05/26 14:11:43;;;;;;;10.00;3.47;;;;;;;;;;5034820;28;20675;-65
2023/05/26 14:14:10;;;;;;;7.73;3.37;;;;;;;;;;5034819;28;20203;-66
2023/05/26 14:16:36;;;;;;;8.57;3.73;;;;;;;;;;5035110;28;20175;-69
2023/05/26 14:19:02;;;;;;;17.83;5.73;;;;;;;;;;5016964;28;20203;-65
2023/05/26 14:21:28;;;;;;;12.73;4.67;;;;;;;;;;5016906;28;20229;-65
2023/05/26 14:23:54;;;;;;;11.23;3.57;;;;;;;;;;5016875;28;20179;-65
2023/05/26 14:26:20;;;;;;;14.07;4.33;;;;;;;;;;5016993;28;20179;-66
2023/05/26 14:28:47;;;;;;;8.53;3.50;;;;;;;;;;5034659;28;20203;-65